Franklin, Minnesota
Current Conditions -  °F | °C
As of 11:24 AM on Friday 19 Dec 2014 (Local Time) from KRWF Reporting Station
Haze Haze  
Wind Chill: 22°   Ceiling: 1100
Heat Index: 31°   Visibility: 4mi
Dew Point: 28°   Wind: 12mph
Humidity: 89%   Direction: 170°S
Pressure: 30.16"   Gusts: NA
Location:  44.53°N, 94.88°W
Report Text: KRWF 191724Z AUTO 17010KT 4SM BR OVC011 M01/M02 A3016 RMK AO2 T10061022
Loading
Personal Weather Stations






























Interactive Weather Map New forecast layout! Learn more

10-Day Weather Forecast

Advertisements
Track Severe Weather on mobile